»·PEaware :: N420MD KBZN-KLAS

N420MD :: KBZN-KLAS

FLIGHT INFORMATION

Flight Status: Arrived
Operator: Privately registered:
United States
More flights under this callsign
Pilot: Anonymous 1753 (1753)
Aircraft: CANADAIR CL-600 CHALLENGER
(CL60)
More flights by this aircraft type
Origin: KBZN Gallatin
United States
Destination: KLAS Harry Reid Intl
United States
More flights between these airports :: More routes between these airports
Route: TEERX4 DBS PIMIE DTA MLF STEWW CHOWW2
File this flight plan on PilotEdge
Remarks: RMK / SIMBRIEF
Altitude:
(Current/Filed)
40,000ft
Speed:
(Current/Filed)
453kts
Departed: 11-Nov-23 12:52 PM
Arrived: 11-Nov-23 02:24 PM
Distance/Time
Traveled:
609nm/1:32
Distance/Time
To Go:
Arrived

Flight Plot

Page will automatically refresh every two minutes.

Flight plan parsing failed; only flown route is shown


Map Options




Map Legend


Flown Route
Filed Route
Departure Airport
Arrival Airport
Navaid (VOR, NDB)
Fix

Horizontal Profiles

Position Reports

Time Latitude Longitude Heading Altitude Ground
Speed
11-Nov-23 12:09 45.772625 -111.152797 226 4469ft 0kts
11-Nov-23 12:10 45.772625 -111.152797 226 4469ft 0kts
11-Nov-23 12:11 45.772625 -111.152797 226 4469ft 0kts
11-Nov-23 12:12 45.772625 -111.152797 226 4469ft 0kts
11-Nov-23 12:13 45.772625 -111.152797 226 4469ft 0kts
11-Nov-23 12:14 45.772625 -111.152797 226 4469ft 0kts
11-Nov-23 12:15 45.772625 -111.152797 226 4469ft 0kts
11-Nov-23 12:16 45.772625 -111.152797 226 4469ft 0kts
11-Nov-23 12:17 45.772625 -111.152797 226 4469ft 0kts
11-Nov-23 12:18 45.772625 -111.152797 226 4469ft 0kts
11-Nov-23 12:19 45.772625 -111.152797 226 4469ft 0kts
11-Nov-23 12:20 45.772625 -111.152797 226 4469ft 0kts
11-Nov-23 12:21 45.772625 -111.152797 226 4469ft 0kts
11-Nov-23 12:22 45.772625 -111.152797 226 4469ft 0kts
11-Nov-23 12:23 45.772625 -111.152797 226 4469ft 0kts
11-Nov-23 12:24 45.772625 -111.152797 226 4469ft 0kts
11-Nov-23 12:25 45.772625 -111.152797 226 4469ft 0kts
11-Nov-23 12:26 45.772625 -111.152797 226 4469ft 0kts
11-Nov-23 12:27 45.772625 -111.152797 226 4469ft 0kts
11-Nov-23 12:28 45.772625 -111.152797 226 4469ft 0kts
11-Nov-23 12:29 45.772625 -111.152797 226 4469ft 0kts
11-Nov-23 12:30 45.772625 -111.152797 226 4469ft 0kts
11-Nov-23 12:31 45.772625 -111.152797 226 4469ft 0kts
11-Nov-23 12:32 45.772625 -111.152797 226 4469ft 0kts
11-Nov-23 12:33 45.772625 -111.152797 226 4469ft 0kts
11-Nov-23 12:34 45.772625 -111.152797 226 4469ft 0kts
11-Nov-23 12:35 45.772625 -111.152797 226 4469ft 0kts
11-Nov-23 12:36 45.772625 -111.152797 226 4469ft 0kts
11-Nov-23 12:37 45.772625 -111.152797 226 4469ft 0kts
11-Nov-23 12:38 45.772625 -111.152797 226 4469ft 0kts
11-Nov-23 12:39 45.772625 -111.152797 226 4469ft 0kts
11-Nov-23 12:40 45.772625 -111.152797 226 4469ft 0kts
11-Nov-23 12:41 45.772622 -111.152801 226 4469ft 0kts
11-Nov-23 12:42 45.772879 -111.152422 225 4468ft 1kts
11-Nov-23 12:43 45.773200 -111.152418 138 4467ft 0kts
11-Nov-23 12:44 45.773200 -111.152418 138 4467ft 0kts
11-Nov-23 12:45 45.773200 -111.152418 138 4467ft 0kts
11-Nov-23 12:46 45.773200 -111.152418 138 4467ft 0kts
11-Nov-23 12:47 45.773140 -111.150107 69 4467ft 11kts
11-Nov-23 12:48 45.771163 -111.147135 139 4468ft 14kts
11-Nov-23 12:49 45.769468 -111.143545 39 4471ft 2kts
11-Nov-23 12:50 45.770870 -111.142544 314 4468ft 0kts
11-Nov-23 12:51 45.786938 -111.163793 314 4995ft 193kts
11-Nov-23 12:52 45.787635 -111.222319 222 8509ft 174kts
11-Nov-23 12:53 45.765684 -111.289068 251 12870ft 207kts
11-Nov-23 12:54 45.746627 -111.361078 255 17122ft 209kts
11-Nov-23 12:55 45.726611 -111.436603 258 20843ft 218kts
11-Nov-23 12:56 45.734037 -111.528975 280 23514ft 249kts
11-Nov-23 12:57 45.737761 -111.629835 251 26272ft 284kts
11-Nov-23 12:58 45.656021 -111.683912 204 28306ft 370kts
11-Nov-23 12:59 45.553116 -111.717773 205 30563ft 385kts
11-Nov-23 13:00 45.447260 -111.753832 205 32715ft 391kts
11-Nov-23 13:01 45.342373 -111.789701 206 34902ft 385kts
11-Nov-23 13:02 45.239175 -111.824891 207 36634ft 381kts
11-Nov-23 13:03 45.137097 -111.859610 207 38040ft 377kts
11-Nov-23 13:04 45.034369 -111.894497 208 39055ft 378kts
11-Nov-23 13:05 44.929915 -111.930106 207 39181ft 401kts
11-Nov-23 13:06 44.817773 -111.968077 206 39108ft 425kts
11-Nov-23 13:07 44.699681 -112.007741 205 39064ft 444kts
11-Nov-23 13:08 44.576948 -112.048766 205 39088ft 459kts
11-Nov-23 13:09 44.451169 -112.090580 204 39174ft 468kts
11-Nov-23 13:10 44.323259 -112.132921 204 39199ft 477kts
11-Nov-23 13:11 44.193116 -112.175845 204 39200ft 480kts
11-Nov-23 13:12 44.061036 -112.212580 197 39184ft 491kts
11-Nov-23 13:13 43.924030 -112.221397 191 39150ft 497kts
11-Nov-23 13:14 43.785149 -112.226678 191 39167ft 494kts
11-Nov-23 13:15 43.647692 -112.232384 191 39225ft 495kts
11-Nov-23 13:16 43.509372 -112.238355 191 39280ft 497kts
11-Nov-23 13:17 43.370647 -112.244525 191 39223ft 495kts
11-Nov-23 13:18 43.232451 -112.250750 191 39245ft 498kts
11-Nov-23 13:19 43.093712 -112.257057 191 39239ft 496kts
11-Nov-23 13:20 42.955516 -112.263340 190 39243ft 498kts
11-Nov-23 13:21 42.817505 -112.269589 191 39242ft 496kts
11-Nov-23 13:22 42.678775 -112.275884 190 39249ft 498kts
11-Nov-23 13:23 42.539894 -112.282194 190 39259ft 498kts
11-Nov-23 13:24 42.401619 -112.288417 190 39252ft 499kts
11-Nov-23 13:25 42.262290 -112.294661 189 39275ft 500kts
11-Nov-23 13:26 42.122772 -112.300893 189 39286ft 500kts
11-Nov-23 13:27 41.983519 -112.307097 189 39302ft 501kts
11-Nov-23 13:28 41.843605 -112.313235 189 39292ft 501kts
11-Nov-23 13:29 41.705016 -112.323334 191 39282ft 500kts
11-Nov-23 13:30 41.565218 -112.334426 190 39224ft 499kts
11-Nov-23 13:31 41.425248 -112.345410 190 39248ft 500kts
11-Nov-23 13:32 41.285434 -112.356365 190 39301ft 501kts
11-Nov-23 13:33 41.144598 -112.367334 190 39319ft 501kts
11-Nov-23 13:34 41.004503 -112.378162 190 39306ft 501kts
11-Nov-23 13:35 40.863851 -112.389041 189 39311ft 502kts
11-Nov-23 13:36 40.723906 -112.399779 189 39326ft 503kts
11-Nov-23 13:37 40.583884 -112.410475 189 39309ft 504kts
11-Nov-23 13:38 40.443206 -112.421164 189 39253ft 504kts
11-Nov-23 13:39 40.303118 -112.431776 188 39265ft 504kts
11-Nov-23 13:40 40.162512 -112.442368 189 39321ft 506kts
11-Nov-23 13:41 40.021209 -112.452947 189 39319ft 506kts
11-Nov-23 13:42 39.879774 -112.463533 188 39316ft 506kts
11-Nov-23 13:43 39.739000 -112.474006 188 39318ft 507kts
11-Nov-23 13:44 39.597369 -112.484507 188 39310ft 508kts
11-Nov-23 13:45 39.456262 -112.494958 188 39322ft 509kts
11-Nov-23 13:46 39.314949 -112.511602 197 39313ft 503kts
11-Nov-23 13:47 39.184851 -112.571308 209 39324ft 493kts
11-Nov-23 13:48 39.058220 -112.639711 209 39357ft 492kts
11-Nov-23 13:49 38.931190 -112.708278 208 39388ft 495kts
11-Nov-23 13:50 38.803791 -112.776853 208 39388ft 495kts
11-Nov-23 13:51 38.676095 -112.845369 208 39325ft 488kts
11-Nov-23 13:52 38.550306 -112.912776 207 35987ft 496kts
11-Nov-23 13:53 38.422312 -112.981126 206 32588ft 487kts
11-Nov-23 13:54 38.296687 -113.044597 203 32465ft 491kts
11-Nov-23 13:55 38.168433 -113.105294 203 32467ft 490kts
11-Nov-23 13:57 38.040210 -113.165830 203 32486ft 491kts
11-Nov-23 13:58 37.911675 -113.226304 203 32483ft 492kts
11-Nov-23 13:59 37.783056 -113.286609 203 32487ft 492kts
11-Nov-23 14:00 37.653957 -113.346937 203 32481ft 493kts
11-Nov-23 14:01 37.524958 -113.406994 203 32472ft 493kts
11-Nov-23 14:02 37.395732 -113.466948 203 32505ft 495kts
11-Nov-23 14:03 37.265569 -113.527134 203 32512ft 496kts
11-Nov-23 14:04 37.140100 -113.597717 208 32513ft 494kts
11-Nov-23 14:05 37.014757 -113.671086 207 32400ft 497kts
11-Nov-23 14:06 36.891043 -113.743207 207 29940ft 474kts
11-Nov-23 14:07 36.774624 -113.810954 207 27566ft 453kts
11-Nov-23 14:08 36.662021 -113.876315 207 25275ft 438kts
11-Nov-23 14:09 36.565362 -113.957515 235 23056ft 408kts
11-Nov-23 14:10 36.497095 -114.066908 235 21012ft 386kts
11-Nov-23 14:11 36.433299 -114.169344 234 18926ft 360kts
11-Nov-23 14:12 36.373124 -114.264942 233 16867ft 342kts
11-Nov-23 14:13 36.316768 -114.353212 233 16104ft 322kts
11-Nov-23 14:14 36.262173 -114.438619 233 14424ft 309kts
11-Nov-23 14:15 36.231017 -114.535124 254 12764ft 301kts
11-Nov-23 14:16 36.205345 -114.632661 253 11123ft 294kts
11-Nov-23 14:17 36.179460 -114.727863 252 9523ft 285kts
11-Nov-23 14:18 36.155080 -114.816868 252 8042ft 257kts
11-Nov-23 14:19 36.133632 -114.898377 266 6653ft 240kts
11-Nov-23 14:20 36.138668 -114.977246 286 6127ft 228kts
11-Nov-23 14:21 36.144799 -115.055921 276 6129ft 230kts
11-Nov-23 14:21 36.148101 -115.118301 264 4894ft 211kts
11-Nov-23 14:23 36.098875 -115.156860 205 2170ft 157kts
11-Nov-23 14:24 36.082295 -115.167142 288 2161ft 6kts
11-Nov-23 14:25 36.082473 -115.167599 297 2162ft 8kts
11-Nov-23 14:26 36.085540 -115.167583 291 2156ft 10kts
11-Nov-23 14:26 36.085958 -115.168348 64 2158ft 0kts
11-Nov-23 14:27 36.086102 -115.168036 79 2157ft 0kts
11-Nov-23 14:29 36.086102 -115.168036 79 2157ft 0kts
11-Nov-23 14:32 36.086102 -115.168036 80 2157ft 0kts

Navigation Log

Ident Type
Flight plan parsing failed, navigation log unavailable